sensor_id;sensor_type;location;lat;lon;timestamp;P1;durP1;ratioP1;P2;durP2;ratioP2
10059;SDS011;5069;49.306;8.636;2023-05-10T00:01:44;2.67;;;1.27;;
10059;SDS011;5069;49.306;8.636;2023-05-10T00:04:46;2.07;;;1.33;;
10059;SDS011;5069;49.306;8.636;2023-05-10T00:07:47;1.60;;;1.50;;
10059;SDS011;5069;49.306;8.636;2023-05-10T00:10:49;2.63;;;1.37;;
10059;SDS011;5069;49.306;8.636;2023-05-10T00:13:50;2.50;;;1.70;;
10059;SDS011;5069;49.306;8.636;2023-05-10T00:16:51;4.30;;;1.80;;
10059;SDS011;5069;49.306;8.636;2023-05-10T00:19:53;1.70;;;1.60;;
10059;SDS011;5069;49.306;8.636;2023-05-10T00:22:55;2.13;;;1.60;;
10059;SDS011;5069;49.306;8.636;2023-05-10T00:25:56;2.47;;;1.40;;
10059;SDS011;5069;49.306;8.636;2023-05-10T00:28:58;2.13;;;1.50;;
10059;SDS011;5069;49.306;8.636;2023-05-10T00:31:59;1.63;;;1.33;;
10059;SDS011;5069;49.306;8.636;2023-05-10T00:35:01;3.30;;;1.30;;
10059;SDS011;5069;49.306;8.636;2023-05-10T00:38:02;1.37;;;1.20;;
10059;SDS011;5069;49.306;8.636;2023-05-10T00:41:04;1.67;;;1.10;;
10059;SDS011;5069;49.306;8.636;2023-05-10T00:44:08;2.20;;;1.10;;
10059;SDS011;5069;49.306;8.636;2023-05-10T00:47:09;1.77;;;1.10;;
10059;SDS011;5069;49.306;8.636;2023-05-10T00:50:11;1.70;;;1.20;;
10059;SDS011;5069;49.306;8.636;2023-05-10T00:53:12;3.97;;;1.00;;
10059;SDS011;5069;49.306;8.636;2023-05-10T00:56:14;3.37;;;0.90;;
10059;SDS011;5069;49.306;8.636;2023-05-10T00:59:16;1.00;;;0.80;;
10059;SDS011;5069;49.306;8.636;2023-05-10T01:02:18;3.03;;;1.27;;
10059;SDS011;5069;49.306;8.636;2023-05-10T01:05:20;3.53;;;1.13;;
10059;SDS011;5069;49.306;8.636;2023-05-10T01:08:22;0.97;;;0.80;;
10059;SDS011;5069;49.306;8.636;2023-05-10T01:11:23;2.70;;;0.87;;
10059;SDS011;5069;49.306;8.636;2023-05-10T01:14:25;1.43;;;0.73;;
10059;SDS011;5069;49.306;8.636;2023-05-10T01:17:27;3.00;;;0.80;;
10059;SDS011;5069;49.306;8.636;2023-05-10T01:20:31;1.53;;;1.00;;
10059;SDS011;5069;49.306;8.636;2023-05-10T01:23:45;0.97;;;0.90;;
10059;SDS011;5069;49.306;8.636;2023-05-10T01:27:10;1.27;;;0.83;;
10059;SDS011;5069;49.306;8.636;2023-05-10T01:30:35;1.80;;;0.70;;
10059;SDS011;5069;49.306;8.636;2023-05-10T01:34:18;2.07;;;0.97;;
10059;SDS011;5069;49.306;8.636;2023-05-10T01:37:33;1.10;;;1.00;;
10059;SDS011;5069;49.306;8.636;2023-05-10T01:47:14;2.60;;;1.03;;
10059;SDS011;5069;49.306;8.636;2023-05-10T01:50:18;2.57;;;1.30;;
10059;SDS011;5069;49.306;8.636;2023-05-10T01:53:23;4.00;;;1.03;;
10059;SDS011;5069;49.306;8.636;2023-05-10T01:56:25;3.10;;;1.20;;
10059;SDS011;5069;49.306;8.636;2023-05-10T01:59:33;1.20;;;1.00;;
10059;SDS011;5069;49.306;8.636;2023-05-10T02:02:44;1.67;;;1.20;;
10059;SDS011;5069;49.306;8.636;2023-05-10T02:05:46;1.97;;;1.10;;
10059;SDS011;5069;49.306;8.636;2023-05-10T02:08:50;1.50;;;1.30;;
10059;SDS011;5069;49.306;8.636;2023-05-10T02:11:53;0.90;;;0.90;;
10059;SDS011;5069;49.306;8.636;2023-05-10T02:14:59;0.90;;;0.90;;
10059;SDS011;5069;49.306;8.636;2023-05-10T02:18:02;1.20;;;1.10;;
10059;SDS011;5069;49.306;8.636;2023-05-10T02:21:05;2.03;;;0.90;;
10059;SDS011;5069;49.306;8.636;2023-05-10T02:24:07;4.73;;;1.10;;
10059;SDS011;5069;49.306;8.636;2023-05-10T02:27:10;1.90;;;1.10;;
10059;SDS011;5069;49.306;8.636;2023-05-10T02:30:13;2.10;;;1.20;;
10059;SDS011;5069;49.306;8.636;2023-05-10T02:33:16;2.20;;;1.23;;
10059;SDS011;5069;49.306;8.636;2023-05-10T02:36:19;2.40;;;1.00;;
10059;SDS011;5069;49.306;8.636;2023-05-10T02:39:22;1.33;;;0.93;;
10059;SDS011;5069;49.306;8.636;2023-05-10T02:42:27;3.20;;;1.10;;
10059;SDS011;5069;49.306;8.636;2023-05-10T02:45:32;3.60;;;1.10;;
10059;SDS011;5069;49.306;8.636;2023-05-10T02:48:36;2.13;;;1.00;;
10059;SDS011;5069;49.306;8.636;2023-05-10T02:51:44;2.93;;;1.10;;
10059;SDS011;5069;49.306;8.636;2023-05-10T02:54:52;1.30;;;1.20;;
10059;SDS011;5069;49.306;8.636;2023-05-10T02:57:58;1.50;;;1.20;;
10059;SDS011;5069;49.306;8.636;2023-05-10T03:01:01;1.73;;;1.10;;
10059;SDS011;5069;49.306;8.636;2023-05-10T03:04:03;1.93;;;1.20;;
10059;SDS011;5069;49.306;8.636;2023-05-10T03:07:04;2.83;;;1.30;;
10059;SDS011;5069;49.306;8.636;2023-05-10T03:10:06;4.43;;;1.40;;
10059;SDS011;5069;49.306;8.636;2023-05-10T03:13:33;2.00;;;1.47;;
10059;SDS011;5069;49.306;8.636;2023-05-10T03:20:35;1.57;;;1.47;;
10059;SDS011;5069;49.306;8.636;2023-05-10T03:23:46;1.93;;;1.60;;
10059;SDS011;5069;49.306;8.636;2023-05-10T03:26:52;2.30;;;1.43;;
10059;SDS011;5069;49.306;8.636;2023-05-10T03:29:57;2.10;;;1.57;;
10059;SDS011;5069;49.306;8.636;2023-05-10T03:33:03;2.97;;;1.40;;
10059;SDS011;5069;49.306;8.636;2023-05-10T03:36:06;1.90;;;1.63;;
10059;SDS011;5069;49.306;8.636;2023-05-10T03:39:07;4.30;;;1.90;;
10059;SDS011;5069;49.306;8.636;2023-05-10T03:42:10;3.67;;;1.90;;
10059;SDS011;5069;49.306;8.636;2023-05-10T03:45:13;2.43;;;1.73;;
10059;SDS011;5069;49.306;8.636;2023-05-10T03:48:14;2.50;;;1.63;;
10059;SDS011;5069;49.306;8.636;2023-05-10T03:51:16;1.90;;;1.53;;
10059;SDS011;5069;49.306;8.636;2023-05-10T03:54:18;2.23;;;1.80;;
10059;SDS011;5069;49.306;8.636;2023-05-10T03:57:20;2.33;;;2.13;;
10059;SDS011;5069;49.306;8.636;2023-05-10T04:00:21;2.73;;;1.87;;
10059;SDS011;5069;49.306;8.636;2023-05-10T04:03:26;2.33;;;2.00;;
10059;SDS011;5069;49.306;8.636;2023-05-10T04:06:28;2.30;;;1.60;;
10059;SDS011;5069;49.306;8.636;2023-05-10T04:09:29;2.50;;;1.80;;
10059;SDS011;5069;49.306;8.636;2023-05-10T04:12:31;2.00;;;1.80;;
10059;SDS011;5069;49.306;8.636;2023-05-10T04:15:32;1.93;;;1.77;;
10059;SDS011;5069;49.306;8.636;2023-05-10T04:18:34;2.57;;;1.70;;
10059;SDS011;5069;49.306;8.636;2023-05-10T04:21:36;2.60;;;2.00;;
10059;SDS011;5069;49.306;8.636;2023-05-10T04:24:37;3.80;;;1.83;;
10059;SDS011;5069;49.306;8.636;2023-05-10T04:27:39;3.27;;;1.90;;
10059;SDS011;5069;49.306;8.636;2023-05-10T04:30:40;2.00;;;1.80;;
10059;SDS011;5069;49.306;8.636;2023-05-10T04:33:42;3.47;;;2.00;;
10059;SDS011;5069;49.306;8.636;2023-05-10T04:36:43;3.30;;;2.10;;
10059;SDS011;5069;49.306;8.636;2023-05-10T04:39:45;2.50;;;2.30;;
10059;SDS011;5069;49.306;8.636;2023-05-10T04:42:46;3.43;;;2.30;;
10059;SDS011;5069;49.306;8.636;2023-05-10T04:45:48;2.90;;;2.50;;
10059;SDS011;5069;49.306;8.636;2023-05-10T04:48:51;3.07;;;2.30;;
10059;SDS011;5069;49.306;8.636;2023-05-10T04:51:52;3.20;;;2.83;;
10059;SDS011;5069;49.306;8.636;2023-05-10T04:54:54;3.10;;;2.73;;
10059;SDS011;5069;49.306;8.636;2023-05-10T04:57:55;4.10;;;3.00;;
10059;SDS011;5069;49.306;8.636;2023-05-10T05:01:04;2.93;;;2.73;;
10059;SDS011;5069;49.306;8.636;2023-05-10T05:04:06;4.47;;;3.23;;
10059;SDS011;5069;49.306;8.636;2023-05-10T05:07:08;3.13;;;2.93;;
10059;SDS011;5069;49.306;8.636;2023-05-10T05:10:10;5.93;;;3.10;;
10059;SDS011;5069;49.306;8.636;2023-05-10T05:13:12;3.77;;;3.10;;
10059;SDS011;5069;49.306;8.636;2023-05-10T05:16:13;4.43;;;2.93;;
10059;SDS011;5069;49.306;8.636;2023-05-10T05:19:15;4.03;;;2.73;;
10059;SDS011;5069;49.306;8.636;2023-05-10T05:22:16;4.03;;;2.80;;
10059;SDS011;5069;49.306;8.636;2023-05-10T05:25:19;5.33;;;3.40;;
10059;SDS011;5069;49.306;8.636;2023-05-10T05:28:21;4.10;;;3.70;;
10059;SDS011;5069;49.306;8.636;2023-05-10T05:31:23;4.53;;;3.20;;
10059;SDS011;5069;49.306;8.636;2023-05-10T05:34:24;4.60;;;3.30;;
10059;SDS011;5069;49.306;8.636;2023-05-10T05:37:26;6.77;;;3.03;;
10059;SDS011;5069;49.306;8.636;2023-05-10T05:40:27;3.80;;;3.40;;
10059;SDS011;5069;49.306;8.636;2023-05-10T05:43:29;5.00;;;3.50;;
10059;SDS011;5069;49.306;8.636;2023-05-10T05:46:30;3.40;;;3.10;;
10059;SDS011;5069;49.306;8.636;2023-05-10T05:49:32;3.87;;;3.57;;
10059;SDS011;5069;49.306;8.636;2023-05-10T05:52:33;3.80;;;3.50;;
10059;SDS011;5069;49.306;8.636;2023-05-10T05:55:35;4.93;;;3.60;;
10059;SDS011;5069;49.306;8.636;2023-05-10T05:58:36;4.63;;;3.60;;
10059;SDS011;5069;49.306;8.636;2023-05-10T06:01:38;7.83;;;4.00;;
10059;SDS011;5069;49.306;8.636;2023-05-10T06:04:39;5.10;;;3.50;;
10059;SDS011;5069;49.306;8.636;2023-05-10T06:07:44;3.70;;;3.40;;
10059;SDS011;5069;49.306;8.636;2023-05-10T06:10:46;3.30;;;3.10;;
10059;SDS011;5069;49.306;8.636;2023-05-10T06:13:47;3.70;;;3.40;;
10059;SDS011;5069;49.306;8.636;2023-05-10T06:16:49;4.87;;;3.40;;
10059;SDS011;5069;49.306;8.636;2023-05-10T06:19:51;5.00;;;3.10;;
10059;SDS011;5069;49.306;8.636;2023-05-10T06:22:52;4.50;;;3.60;;
10059;SDS011;5069;49.306;8.636;2023-05-10T06:25:53;5.70;;;3.07;;
10059;SDS011;5069;49.306;8.636;2023-05-10T06:28:55;4.00;;;3.13;;
10059;SDS011;5069;49.306;8.636;2023-05-10T06:31:56;3.80;;;3.27;;
10059;SDS011;5069;49.306;8.636;2023-05-10T06:34:58;7.10;;;2.67;;
10059;SDS011;5069;49.306;8.636;2023-05-10T06:37:59;2.97;;;2.77;;
10059;SDS011;5069;49.306;8.636;2023-05-10T06:41:01;4.53;;;2.90;;
10059;SDS011;5069;49.306;8.636;2023-05-10T06:44:02;2.97;;;2.70;;
10059;SDS011;5069;49.306;8.636;2023-05-10T06:47:05;3.60;;;3.00;;
10059;SDS011;5069;49.306;8.636;2023-05-10T06:50:09;3.20;;;2.90;;
10059;SDS011;5069;49.306;8.636;2023-05-10T06:53:12;3.83;;;3.20;;
10059;SDS011;5069;49.306;8.636;2023-05-10T06:56:14;3.00;;;2.73;;
10059;SDS011;5069;49.306;8.636;2023-05-10T06:59:15;4.13;;;2.50;;
10059;SDS011;5069;49.306;8.636;2023-05-10T07:02:17;2.60;;;2.40;;
10059;SDS011;5069;49.306;8.636;2023-05-10T07:05:19;4.27;;;2.60;;
10059;SDS011;5069;49.306;8.636;2023-05-10T07:08:21;3.47;;;2.30;;
10059;SDS011;5069;49.306;8.636;2023-05-10T07:11:23;3.90;;;3.00;;
10059;SDS011;5069;49.306;8.636;2023-05-10T07:14:24;4.33;;;2.63;;
10059;SDS011;5069;49.306;8.636;2023-05-10T07:17:26;4.07;;;2.87;;
10059;SDS011;5069;49.306;8.636;2023-05-10T07:20:27;4.80;;;3.10;;
10059;SDS011;5069;49.306;8.636;2023-05-10T07:23:29;5.00;;;3.10;;
10059;SDS011;5069;49.306;8.636;2023-05-10T07:26:31;3.30;;;3.00;;
10059;SDS011;5069;49.306;8.636;2023-05-10T07:29:32;3.57;;;3.27;;
10059;SDS011;5069;49.306;8.636;2023-05-10T07:32:34;4.17;;;3.30;;
10059;SDS011;5069;49.306;8.636;2023-05-10T07:35:35;4.67;;;3.17;;
10059;SDS011;5069;49.306;8.636;2023-05-10T07:38:37;2.97;;;2.63;;
10059;SDS011;5069;49.306;8.636;2023-05-10T07:41:41;3.03;;;2.80;;
10059;SDS011;5069;49.306;8.636;2023-05-10T07:44:42;7.33;;;3.03;;
10059;SDS011;5069;49.306;8.636;2023-05-10T07:47:44;4.80;;;2.63;;
10059;SDS011;5069;49.306;8.636;2023-05-10T07:50:45;2.80;;;2.60;;
10059;SDS011;5069;49.306;8.636;2023-05-10T07:53:47;3.57;;;2.80;;
10059;SDS011;5069;49.306;8.636;2023-05-10T07:56:48;3.10;;;2.40;;
10059;SDS011;5069;49.306;8.636;2023-05-10T07:59:50;3.37;;;2.50;;
10059;SDS011;5069;49.306;8.636;2023-05-10T08:02:51;3.00;;;2.33;;
10059;SDS011;5069;49.306;8.636;2023-05-10T08:05:54;2.90;;;2.43;;
10059;SDS011;5069;49.306;8.636;2023-05-10T08:08:55;2.30;;;2.10;;
10059;SDS011;5069;49.306;8.636;2023-05-10T08:11:57;2.17;;;1.97;;
10059;SDS011;5069;49.306;8.636;2023-05-10T08:15:00;5.27;;;2.00;;
10059;SDS011;5069;49.306;8.636;2023-05-10T08:18:01;2.67;;;2.07;;
10059;SDS011;5069;49.306;8.636;2023-05-10T08:21:03;3.87;;;2.10;;
10059;SDS011;5069;49.306;8.636;2023-05-10T08:24:05;2.13;;;1.93;;
10059;SDS011;5069;49.306;8.636;2023-05-10T08:27:08;3.30;;;1.93;;
10059;SDS011;5069;49.306;8.636;2023-05-10T08:30:09;2.07;;;1.90;;
10059;SDS011;5069;49.306;8.636;2023-05-10T08:33:11;2.57;;;2.00;;
10059;SDS011;5069;49.306;8.636;2023-05-10T08:36:12;4.77;;;2.00;;
10059;SDS011;5069;49.306;8.636;2023-05-10T08:39:16;3.73;;;1.87;;
10059;SDS011;5069;49.306;8.636;2023-05-10T08:42:30;1.50;;;1.40;;
10059;SDS011;5069;49.306;8.636;2023-05-10T08:45:40;1.50;;;1.40;;
10059;SDS011;5069;49.306;8.636;2023-05-10T08:48:43;1.60;;;1.40;;
10059;SDS011;5069;49.306;8.636;2023-05-10T08:51:49;1.90;;;1.50;;
10059;SDS011;5069;49.306;8.636;2023-05-10T08:54:53;2.57;;;1.37;;
10059;SDS011;5069;49.306;8.636;2023-05-10T08:57:54;3.53;;;1.10;;
10059;SDS011;5069;49.306;8.636;2023-05-10T09:00:56;2.03;;;1.10;;
10059;SDS011;5069;49.306;8.636;2023-05-10T09:03:58;2.13;;;1.20;;
10059;SDS011;5069;49.306;8.636;2023-05-10T09:07:00;1.60;;;1.17;;
10059;SDS011;5069;49.306;8.636;2023-05-10T09:10:02;1.00;;;1.00;;
10059;SDS011;5069;49.306;8.636;2023-05-10T09:13:05;2.97;;;1.30;;
10059;SDS011;5069;49.306;8.636;2023-05-10T09:16:14;1.43;;;1.30;;
10059;SDS011;5069;49.306;8.636;2023-05-10T09:19:22;3.43;;;1.43;;
10059;SDS011;5069;49.306;8.636;2023-05-10T09:22:24;1.70;;;0.90;;
10059;SDS011;5069;49.306;8.636;2023-05-10T09:25:26;1.13;;;1.03;;
10059;SDS011;5069;49.306;8.636;2023-05-10T09:28:31;0.90;;;0.90;;
10059;SDS011;5069;49.306;8.636;2023-05-10T09:31:43;1.27;;;1.00;;
10059;SDS011;5069;49.306;8.636;2023-05-10T09:34:47;1.10;;;1.00;;
10059;SDS011;5069;49.306;8.636;2023-05-10T09:37:51;1.10;;;1.00;;
10059;SDS011;5069;49.306;8.636;2023-05-10T09:40:55;2.73;;;0.80;;
10059;SDS011;5069;49.306;8.636;2023-05-10T09:43:57;4.00;;;1.00;;
10059;SDS011;5069;49.306;8.636;2023-05-10T09:46:59;2.93;;;1.00;;
10059;SDS011;5069;49.306;8.636;2023-05-10T09:50:01;2.00;;;1.00;;
10059;SDS011;5069;49.306;8.636;2023-05-10T09:53:04;3.00;;;1.30;;
10059;SDS011;5069;49.306;8.636;2023-05-10T09:56:06;2.13;;;1.00;;
10059;SDS011;5069;49.306;8.636;2023-05-10T09:59:09;0.83;;;0.80;;
10059;SDS011;5069;49.306;8.636;2023-05-10T10:02:12;0.90;;;0.90;;
10059;SDS011;5069;49.306;8.636;2023-05-10T10:05:14;0.97;;;0.90;;
10059;SDS011;5069;49.306;8.636;2023-05-10T10:08:16;1.53;;;0.83;;
10059;SDS011;5069;49.306;8.636;2023-05-10T10:11:18;1.20;;;0.80;;
10059;SDS011;5069;49.306;8.636;2023-05-10T10:14:19;0.77;;;0.77;;
10059;SDS011;5069;49.306;8.636;2023-05-10T10:17:22;1.97;;;0.80;;
10059;SDS011;5069;49.306;8.636;2023-05-10T10:20:28;3.60;;;0.63;;
10059;SDS011;5069;49.306;8.636;2023-05-10T10:23:29;1.13;;;0.80;;
10059;SDS011;5069;49.306;8.636;2023-05-10T10:26:33;1.23;;;0.80;;
10059;SDS011;5069;49.306;8.636;2023-05-10T10:33:08;2.67;;;0.80;;
10059;SDS011;5069;49.306;8.636;2023-05-10T10:36:28;2.70;;;0.70;;
10059;SDS011;5069;49.306;8.636;2023-05-10T10:39:30;0.70;;;0.70;;
10059;SDS011;5069;49.306;8.636;2023-05-10T10:42:44;0.80;;;0.67;;
10059;SDS011;5069;49.306;8.636;2023-05-10T10:45:48;0.70;;;0.70;;
10059;SDS011;5069;49.306;8.636;2023-05-10T10:49:18;1.07;;;0.70;;
10059;SDS011;5069;49.306;8.636;2023-05-10T10:55:24;1.87;;;0.70;;
10059;SDS011;5069;49.306;8.636;2023-05-10T10:58:30;0.60;;;0.60;;
10059;SDS011;5069;49.306;8.636;2023-05-10T11:01:33;1.67;;;0.60;;
10059;SDS011;5069;49.306;8.636;2023-05-10T11:04:42;0.80;;;0.60;;
10059;SDS011;5069;49.306;8.636;2023-05-10T11:07:54;1.40;;;0.70;;
10059;SDS011;5069;49.306;8.636;2023-05-10T11:14:04;2.03;;;0.80;;
10059;SDS011;5069;49.306;8.636;2023-05-10T11:17:24;1.53;;;1.07;;
10059;SDS011;5069;49.306;8.636;2023-05-10T11:20:38;0.80;;;0.70;;
10059;SDS011;5069;49.306;8.636;2023-05-10T11:26:45;1.30;;;0.80;;
10059;SDS011;5069;49.306;8.636;2023-05-10T11:29:50;2.67;;;1.10;;
10059;SDS011;5069;49.306;8.636;2023-05-10T11:32:52;1.77;;;1.00;;
10059;SDS011;5069;49.306;8.636;2023-05-10T11:35:54;1.67;;;0.90;;
10059;SDS011;5069;49.306;8.636;2023-05-10T11:38:56;1.73;;;1.10;;
10059;SDS011;5069;49.306;8.636;2023-05-10T11:41:58;1.40;;;0.80;;
10059;SDS011;5069;49.306;8.636;2023-05-10T11:45:00;3.80;;;1.10;;
10059;SDS011;5069;49.306;8.636;2023-05-10T11:48:02;4.07;;;1.17;;
10059;SDS011;5069;49.306;8.636;2023-05-10T11:51:04;2.80;;;1.20;;
10059;SDS011;5069;49.306;8.636;2023-05-10T11:54:06;1.97;;;1.20;;
10059;SDS011;5069;49.306;8.636;2023-05-10T11:57:12;4.37;;;1.50;;
10059;SDS011;5069;49.306;8.636;2023-05-10T12:00:13;2.30;;;1.10;;
10059;SDS011;5069;49.306;8.636;2023-05-10T12:03:16;2.57;;;1.07;;
10059;SDS011;5069;49.306;8.636;2023-05-10T12:06:18;3.00;;;1.10;;
10059;SDS011;5069;49.306;8.636;2023-05-10T12:09:21;4.17;;;1.00;;
10059;SDS011;5069;49.306;8.636;2023-05-10T12:12:42;1.23;;;1.00;;
10059;SDS011;5069;49.306;8.636;2023-05-10T12:15:45;2.80;;;1.20;;
10059;SDS011;5069;49.306;8.636;2023-05-10T12:18:50;2.00;;;1.10;;
10059;SDS011;5069;49.306;8.636;2023-05-10T12:21:52;2.57;;;0.87;;
10059;SDS011;5069;49.306;8.636;2023-05-10T12:24:54;1.50;;;0.80;;
10059;SDS011;5069;49.306;8.636;2023-05-10T12:27:57;2.33;;;0.97;;
10059;SDS011;5069;49.306;8.636;2023-05-10T12:30:59;4.43;;;1.10;;
10059;SDS011;5069;49.306;8.636;2023-05-10T12:34:02;2.97;;;0.90;;
10059;SDS011;5069;49.306;8.636;2023-05-10T12:37:03;4.50;;;1.00;;
10059;SDS011;5069;49.306;8.636;2023-05-10T12:40:06;1.80;;;0.77;;
10059;SDS011;5069;49.306;8.636;2023-05-10T12:43:09;3.43;;;0.80;;
10059;SDS011;5069;49.306;8.636;2023-05-10T12:46:14;2.17;;;0.90;;
10059;SDS011;5069;49.306;8.636;2023-05-10T12:49:17;1.20;;;1.00;;
10059;SDS011;5069;49.306;8.636;2023-05-10T12:52:20;4.73;;;1.03;;
10059;SDS011;5069;49.306;8.636;2023-05-10T12:55:21;5.80;;;1.10;;
10059;SDS011;5069;49.306;8.636;2023-05-10T12:58:22;3.33;;;1.10;;
10059;SDS011;5069;49.306;8.636;2023-05-10T13:01:36;2.13;;;1.00;;
10059;SDS011;5069;49.306;8.636;2023-05-10T13:04:38;1.50;;;1.00;;
10059;SDS011;5069;49.306;8.636;2023-05-10T13:07:40;1.67;;;1.10;;
10059;SDS011;5069;49.306;8.636;2023-05-10T13:10:42;3.93;;;1.07;;
10059;SDS011;5069;49.306;8.636;2023-05-10T13:13:43;2.87;;;1.00;;
10059;SDS011;5069;49.306;8.636;2023-05-10T13:16:46;2.20;;;0.87;;
10059;SDS011;5069;49.306;8.636;2023-05-10T13:19:47;2.40;;;1.10;;
10059;SDS011;5069;49.306;8.636;2023-05-10T13:22:49;3.77;;;1.17;;
10059;SDS011;5069;49.306;8.636;2023-05-10T13:25:52;1.67;;;0.90;;
10059;SDS011;5069;49.306;8.636;2023-05-10T13:28:53;1.93;;;0.90;;
10059;SDS011;5069;49.306;8.636;2023-05-10T13:31:56;1.70;;;0.80;;
10059;SDS011;5069;49.306;8.636;2023-05-10T13:34:58;4.03;;;0.90;;
10059;SDS011;5069;49.306;8.636;2023-05-10T13:37:59;2.63;;;0.80;;
10059;SDS011;5069;49.306;8.636;2023-05-10T13:41:01;1.27;;;0.77;;
10059;SDS011;5069;49.306;8.636;2023-05-10T13:44:02;3.67;;;0.90;;
10059;SDS011;5069;49.306;8.636;2023-05-10T13:47:04;2.87;;;1.00;;
10059;SDS011;5069;49.306;8.636;2023-05-10T13:50:06;2.93;;;1.00;;
10059;SDS011;5069;49.306;8.636;2023-05-10T13:53:08;1.97;;;0.90;;
10059;SDS011;5069;49.306;8.636;2023-05-10T13:56:09;1.60;;;0.77;;
10059;SDS011;5069;49.306;8.636;2023-05-10T13:59:11;2.57;;;0.90;;
10059;SDS011;5069;49.306;8.636;2023-05-10T14:02:12;0.70;;;0.63;;
10059;SDS011;5069;49.306;8.636;2023-05-10T14:05:14;1.10;;;0.67;;
10059;SDS011;5069;49.306;8.636;2023-05-10T14:08:16;0.93;;;0.63;;
10059;SDS011;5069;49.306;8.636;2023-05-10T14:11:18;1.73;;;0.80;;
10059;SDS011;5069;49.306;8.636;2023-05-10T14:14:22;2.50;;;0.80;;
10059;SDS011;5069;49.306;8.636;2023-05-10T14:17:23;1.13;;;0.57;;
10059;SDS011;5069;49.306;8.636;2023-05-10T14:20:25;1.83;;;0.83;;
10059;SDS011;5069;49.306;8.636;2023-05-10T14:23:26;1.37;;;0.73;;
10059;SDS011;5069;49.306;8.636;2023-05-10T14:26:29;1.43;;;0.70;;
10059;SDS011;5069;49.306;8.636;2023-05-10T14:29:31;1.80;;;0.70;;
10059;SDS011;5069;49.306;8.636;2023-05-10T14:32:33;4.57;;;0.93;;
10059;SDS011;5069;49.306;8.636;2023-05-10T14:35:35;1.57;;;0.70;;
10059;SDS011;5069;49.306;8.636;2023-05-10T14:38:37;0.73;;;0.63;;
10059;SDS011;5069;49.306;8.636;2023-05-10T14:41:38;2.00;;;0.70;;
10059;SDS011;5069;49.306;8.636;2023-05-10T14:44:42;0.80;;;0.70;;
10059;SDS011;5069;49.306;8.636;2023-05-10T14:47:43;1.30;;;0.80;;
10059;SDS011;5069;49.306;8.636;2023-05-10T14:50:45;2.67;;;0.60;;
10059;SDS011;5069;49.306;8.636;2023-05-10T14:53:47;5.30;;;0.90;;
10059;SDS011;5069;49.306;8.636;2023-05-10T14:56:50;1.20;;;0.53;;
10059;SDS011;5069;49.306;8.636;2023-05-10T14:59:51;2.53;;;0.77;;
10059;SDS011;5069;49.306;8.636;2023-05-10T15:02:53;3.37;;;0.60;;
10059;SDS011;5069;49.306;8.636;2023-05-10T15:05:55;1.03;;;0.60;;
10059;SDS011;5069;49.306;8.636;2023-05-10T15:08:58;0.60;;;0.50;;
10059;SDS011;5069;49.306;8.636;2023-05-10T15:12:00;0.80;;;0.63;;
10059;SDS011;5069;49.306;8.636;2023-05-10T15:15:01;3.97;;;0.70;;
10059;SDS011;5069;49.306;8.636;2023-05-10T15:18:03;2.83;;;0.70;;
10059;SDS011;5069;49.306;8.636;2023-05-10T15:21:05;3.20;;;0.70;;
10059;SDS011;5069;49.306;8.636;2023-05-10T15:24:07;1.43;;;0.70;;
10059;SDS011;5069;49.306;8.636;2023-05-10T15:27:09;0.73;;;0.50;;
10059;SDS011;5069;49.306;8.636;2023-05-10T15:30:11;1.17;;;0.60;;
10059;SDS011;5069;49.306;8.636;2023-05-10T15:33:13;1.57;;;0.60;;
10059;SDS011;5069;49.306;8.636;2023-05-10T15:36:14;1.00;;;0.60;;
10059;SDS011;5069;49.306;8.636;2023-05-10T15:39:16;1.53;;;0.60;;
10059;SDS011;5069;49.306;8.636;2023-05-10T15:42:17;0.50;;;0.50;;
10059;SDS011;5069;49.306;8.636;2023-05-10T15:45:19;2.20;;;0.70;;
10059;SDS011;5069;49.306;8.636;2023-05-10T15:48:20;2.50;;;0.60;;
10059;SDS011;5069;49.306;8.636;2023-05-10T15:51:22;2.20;;;0.70;;
10059;SDS011;5069;49.306;8.636;2023-05-10T15:54:23;0.90;;;0.60;;
10059;SDS011;5069;49.306;8.636;2023-05-10T15:57:25;2.00;;;0.63;;
10059;SDS011;5069;49.306;8.636;2023-05-10T16:00:26;0.70;;;0.50;;
10059;SDS011;5069;49.306;8.636;2023-05-10T16:03:28;2.40;;;0.77;;
10059;SDS011;5069;49.306;8.636;2023-05-10T16:06:30;2.00;;;0.70;;
10059;SDS011;5069;49.306;8.636;2023-05-10T16:09:32;3.00;;;0.80;;
10059;SDS011;5069;49.306;8.636;2023-05-10T16:12:34;1.10;;;0.67;;
10059;SDS011;5069;49.306;8.636;2023-05-10T16:15:37;1.53;;;0.80;;
10059;SDS011;5069;49.306;8.636;2023-05-10T16:18:38;0.87;;;0.60;;
10059;SDS011;5069;49.306;8.636;2023-05-10T16:21:40;0.73;;;0.53;;
10059;SDS011;5069;49.306;8.636;2023-05-10T16:24:42;0.97;;;0.70;;
10059;SDS011;5069;49.306;8.636;2023-05-10T16:27:44;1.97;;;0.70;;
10059;SDS011;5069;49.306;8.636;2023-05-10T16:30:45;0.80;;;0.60;;
10059;SDS011;5069;49.306;8.636;2023-05-10T16:33:48;2.57;;;0.73;;
10059;SDS011;5069;49.306;8.636;2023-05-10T16:36:49;0.70;;;0.70;;
10059;SDS011;5069;49.306;8.636;2023-05-10T16:39:53;2.17;;;0.83;;
10059;SDS011;5069;49.306;8.636;2023-05-10T16:42:54;1.37;;;0.60;;
10059;SDS011;5069;49.306;8.636;2023-05-10T16:45:56;1.00;;;0.80;;
10059;SDS011;5069;49.306;8.636;2023-05-10T16:48:58;0.73;;;0.73;;
10059;SDS011;5069;49.306;8.636;2023-05-10T16:52:00;2.50;;;0.70;;
10059;SDS011;5069;49.306;8.636;2023-05-10T16:55:02;1.13;;;0.83;;
10059;SDS011;5069;49.306;8.636;2023-05-10T16:58:04;1.27;;;0.80;;
10059;SDS011;5069;49.306;8.636;2023-05-10T17:01:06;0.73;;;0.73;;
10059;SDS011;5069;49.306;8.636;2023-05-10T17:04:07;0.87;;;0.80;;
10059;SDS011;5069;49.306;8.636;2023-05-10T17:07:09;2.00;;;0.63;;
10059;SDS011;5069;49.306;8.636;2023-05-10T17:10:10;0.50;;;0.50;;
10059;SDS011;5069;49.306;8.636;2023-05-10T17:13:12;1.23;;;0.50;;
10059;SDS011;5069;49.306;8.636;2023-05-10T17:16:13;1.23;;;0.60;;
10059;SDS011;5069;49.306;8.636;2023-05-10T17:19:15;0.50;;;0.50;;
10059;SDS011;5069;49.306;8.636;2023-05-10T17:22:16;0.67;;;0.60;;
10059;SDS011;5069;49.306;8.636;2023-05-10T17:25:18;2.20;;;0.70;;
10059;SDS011;5069;49.306;8.636;2023-05-10T17:28:21;1.80;;;0.60;;
10059;SDS011;5069;49.306;8.636;2023-05-10T17:31:23;1.73;;;0.73;;
10059;SDS011;5069;49.306;8.636;2023-05-10T17:34:24;2.73;;;0.83;;
10059;SDS011;5069;49.306;8.636;2023-05-10T17:37:26;1.50;;;0.60;;
10059;SDS011;5069;49.306;8.636;2023-05-10T17:40:27;2.97;;;1.00;;
10059;SDS011;5069;49.306;8.636;2023-05-10T17:43:29;0.93;;;0.73;;
10059;SDS011;5069;49.306;8.636;2023-05-10T17:46:30;0.87;;;0.70;;
10059;SDS011;5069;49.306;8.636;2023-05-10T17:49:33;3.60;;;0.77;;
10059;SDS011;5069;49.306;8.636;2023-05-10T17:52:34;2.47;;;0.87;;
10059;SDS011;5069;49.306;8.636;2023-05-10T17:55:38;0.60;;;0.60;;
10059;SDS011;5069;49.306;8.636;2023-05-10T17:58:40;1.00;;;0.80;;
10059;SDS011;5069;49.306;8.636;2023-05-10T18:01:42;3.67;;;0.83;;
10059;SDS011;5069;49.306;8.636;2023-05-10T18:04:43;6.67;;;1.10;;
10059;SDS011;5069;49.306;8.636;2023-05-10T18:07:45;2.83;;;0.80;;
10059;SDS011;5069;49.306;8.636;2023-05-10T18:10:47;0.77;;;0.77;;
10059;SDS011;5069;49.306;8.636;2023-05-10T18:13:51;1.20;;;0.60;;
10059;SDS011;5069;49.306;8.636;2023-05-10T18:16:53;1.43;;;0.73;;
10059;SDS011;5069;49.306;8.636;2023-05-10T18:19:55;0.77;;;0.77;;
10059;SDS011;5069;49.306;8.636;2023-05-10T18:22:56;1.27;;;0.70;;
10059;SDS011;5069;49.306;8.636;2023-05-10T18:25:58;2.27;;;0.70;;
10059;SDS011;5069;49.306;8.636;2023-05-10T18:29:00;1.57;;;0.70;;
10059;SDS011;5069;49.306;8.636;2023-05-10T18:32:02;3.20;;;0.70;;
10059;SDS011;5069;49.306;8.636;2023-05-10T18:35:04;2.30;;;0.70;;
10059;SDS011;5069;49.306;8.636;2023-05-10T18:38:07;0.90;;;0.60;;
10059;SDS011;5069;49.306;8.636;2023-05-10T18:41:09;0.70;;;0.60;;
10059;SDS011;5069;49.306;8.636;2023-05-10T18:44:13;0.90;;;0.60;;
10059;SDS011;5069;49.306;8.636;2023-05-10T18:47:14;2.50;;;0.83;;
10059;SDS011;5069;49.306;8.636;2023-05-10T18:50:16;2.10;;;0.60;;
10059;SDS011;5069;49.306;8.636;2023-05-10T18:53:17;0.63;;;0.60;;
10059;SDS011;5069;49.306;8.636;2023-05-10T18:56:19;1.87;;;0.70;;
10059;SDS011;5069;49.306;8.636;2023-05-10T18:59:22;0.97;;;0.70;;
10059;SDS011;5069;49.306;8.636;2023-05-10T19:02:23;2.10;;;0.70;;